Time,TemperatureF,DewpointF,PressureIn,WindDirection,WindDirectionDegrees,WindSpeedMPH,WindSpeedGustMPH,Humidity,HourlyPrecipIn,Conditions,Clouds,dailyrainin,SoftwareType,DateUTC
2013-03-03 00:00:00,46.0,44.0,-100.00,SW,232,5.0,-999.0,92,-99.99,,,-99.99,,2013-03-03 08:00:00,
2013-03-03 00:54:00,46.0,44.0,-100.00,SW,232,5.0,-999.0,92,-99.99,,,-99.99,,2013-03-03 08:54:00,
2013-03-03 01:00:00,46.0,43.0,-100.00,North,349,2.0,-999.0,90,-99.99,,,-99.99,,2013-03-03 09:00:00,
2013-03-03 02:00:00,46.0,44.0,-100.00,NE,43,3.0,-999.0,93,-99.99,,,-99.99,,2013-03-03 10:00:00,
2013-03-03 02:52:00,46.0,44.0,-100.00,NE,43,3.0,-999.0,93,-99.99,,,-99.99,,2013-03-03 10:52:00,
2013-03-03 03:00:00,45.0,43.0,-100.00,WSW,255,2.0,-999.0,94,-99.99,,,-99.99,,2013-03-03 11:00:00,
2013-03-03 03:52:00,45.0,43.0,-100.00,WSW,255,2.0,-999.0,94,-99.99,,,-99.99,,2013-03-03 11:52:00,
2013-03-03 04:00:00,45.0,43.0,-100.00,WNW,293,1.0,-999.0,94,-99.99,,,-99.99,,2013-03-03 12:00:00,
2013-03-03 05:00:00,45.0,44.0,-100.00,NW,326,2.0,-999.0,95,-99.99,,,-99.99,,2013-03-03 13:00:00,
2013-03-03 06:00:00,44.0,43.0,-100.00,WSW,242,1.0,-999.0,95,-99.99,,,-99.99,,2013-03-03 14:00:00,
2013-03-03 07:00:00,43.0,42.0,-100.00,North,349,1.0,-999.0,95,-99.99,,,-99.99,,2013-03-03 15:00:00,
2013-03-03 08:00:00,44.0,43.0,-100.00,North,2,5.0,-999.0,96,-99.99,,,-99.99,,2013-03-03 16:00:00,
2013-03-03 09:00:00,44.0,41.0,-100.00,NNE,20,5.0,-999.0,90,-99.99,,,-99.99,,2013-03-03 17:00:00,
2013-03-03 10:00:00,45.0,40.0,-100.00,North,355,6.0,-999.0,82,-99.99,,,-99.99,,2013-03-03 18:00:00,
2013-03-03 11:00:00,47.0,39.0,-100.00,NNW,342,6.0,-999.0,75,-99.99,,,-99.99,,2013-03-03 19:00:00,
2013-03-03 12:00:00,49.0,39.0,-100.00,North,354,5.0,-999.0,69,-99.99,,,-99.99,,2013-03-03 20:00:00,
2013-03-03 13:00:00,51.0,39.0,-100.00,North,354,2.0,-999.0,64,-99.99,,,-99.99,,2013-03-03 21:00:00,
2013-03-03 13:52:00,51.0,39.0,-100.00,North,354,2.0,-999.0,64,-99.99,,,-99.99,,2013-03-03 21:52:00,
2013-03-03 14:00:00,53.0,37.0,-100.00,NW,316,3.0,-999.0,54,-99.99,,,-99.99,,2013-03-03 22:00:00,
2013-03-03 15:00:00,54.0,35.0,-100.00,WNW,299,3.0,-999.0,48,-99.99,,,-99.99,,2013-03-03 23:00:00,
2013-03-03 16:00:00,55.0,32.0,-100.00,NNW,345,3.0,-999.0,42,-99.99,,,-99.99,,2013-03-04 00:00:00,
2013-03-03 17:00:00,54.0,33.0,-100.00,NNW,337,5.0,-999.0,45,-99.99,,,-99.99,,2013-03-04 01:00:00,
2013-03-03 17:52:00,54.0,33.0,-100.00,NNW,337,5.0,-999.0,45,-99.99,,,-99.99,,2013-03-04 01:52:00,
2013-03-03 18:00:00,53.0,35.0,-100.00,NW,321,3.0,-999.0,50,-99.99,,,-99.99,,2013-03-04 02:00:00,
2013-03-03 18:52:00,53.0,35.0,-100.00,NW,321,3.0,-999.0,50,-99.99,,,-99.99,,2013-03-04 02:52:00,
2013-03-03 19:00:00,48.0,37.0,-100.00,NNE,12,9.0,-999.0,65,-99.99,,,-99.99,,2013-03-04 03:00:00,
2013-03-03 19:52:00,48.0,37.0,-100.00,NNE,12,9.0,-999.0,65,-99.99,,,-99.99,,2013-03-04 03:52:00,
2013-03-03 20:00:00,45.0,36.0,-100.00,NNE,23,8.0,-999.0,70,-99.99,,,-99.99,,2013-03-04 04:00:00,
2013-03-03 21:00:00,40.0,33.0,-100.00,West,274,3.0,-999.0,77,-99.99,,,-99.99,,2013-03-04 05:00:00,
2013-03-03 22:00:00,37.0,33.0,-100.00,SW,219,5.0,-999.0,84,-99.99,,,-99.99,,2013-03-04 06:00:00,
2013-03-03 23:00:00,35.0,32.0,-100.00,SSW,198,3.0,-999.0,87,-99.99,,,-99.99,,2013-03-04 07:00:00,
2013-03-03 23:52:00,35.0,32.0,-100.00,SSW,198,3.0,-999.0,87,-99.99,,,-99.99,,2013-03-04 07:52:00,